Strona główna
METAR-TAF:

METAR-TAF

Lotnisko :

Port lotniczy Albrook "Marcos A. Gelabert"

Panama, Panama

Szerokość geograficzna: 08-59N, Długość geograficzna: 079-31W, wysokość: 13 m

Aktualna obserwacja pogody

Raport powstał 49 minut temu, godzina 01:00 UTC
Wiatr 6 kt od północno-północny zachód
Temperatura 28°C
Wilgotność 74%
Ciśnienie 1010 hPa

METAR: MPMG 060100Z AUTO 33006KT //// R01///// // BKN062/// BKN072/// 28/23 Q1010

czas: 20:49 (01:49 UTC)

Prognoza

Raport powstał 8 godziny i 19 minut temu, godzina 17:30 UTC
Prognoza ważna od 05 godzina 18 UTC do 06 godzina 06 UTC
Wiatr 10 kt od północno-północny zachód
Widzialność 10 km lub więcej
Rozproszone chmury na wysokości 1800 ft

TAF: MPMG 051730Z 0518/0606 34010KT 9999 SCT018

Obserwacja i prognoza pogody dla ponad 4000 lotnisk (raport METAR i TAF).

Dostępne stacje oznaczono żółtymi i czerwonymi punktami na mapie.

Najedź kursorem aby zobaczyć nazwę stacji.

Kliknij aby zobaczyć obserwacje i prognozy pogody.

Aby zmienić mapę: kliknij na zielony przycisk z czarnym krzyżykiem, aby powiększyć; na zielony przycisk z myślnikiem, aby pomniejszyć; na zielone strzałki, aby przejść do map sąsiednich.


METAR-TAF: